createdAt,value
2023-02-14T00:02:23.351Z,59.51
2023-02-14T00:04:49.931Z,59.77
2023-02-14T00:07:16.517Z,59.65
2023-02-14T00:09:43.021Z,59.69
2023-02-14T00:12:09.595Z,59.66
2023-02-14T00:14:54.588Z,59.66
2023-02-14T00:17:21.114Z,59.54
2023-02-14T00:19:47.663Z,59.25
2023-02-14T00:22:14.288Z,59.48
2023-02-14T00:24:40.843Z,59.35
2023-02-14T00:27:07.426Z,59.32
2023-02-14T00:29:34.495Z,58.96
2023-02-14T00:32:01.517Z,59.17
2023-02-14T00:34:28.335Z,58.95
2023-02-14T00:36:54.817Z,58.17
2023-02-14T00:39:21.325Z,58.74
2023-02-14T00:41:47.931Z,58.86
2023-02-14T00:44:14.529Z,59.04
2023-02-14T00:46:41.809Z,59.04
2023-02-14T00:49:08.789Z,58.80
2023-02-14T00:51:35.493Z,58.74
2023-02-14T00:54:02.266Z,58.97
2023-02-14T00:56:28.893Z,58.10
2023-02-14T00:58:55.397Z,58.69
2023-02-14T01:01:22.255Z,58.62
2023-02-14T01:03:48.692Z,58.04
2023-02-14T01:06:16.035Z,58.69
2023-02-14T01:08:42.781Z,58.53
2023-02-14T01:11:13.981Z,57.74
2023-02-14T01:13:41.005Z,58.71
2023-02-14T01:16:09.588Z,58.91
2023-02-14T01:18:37.064Z,58.73
2023-02-14T01:21:14.465Z,58.90
2023-02-14T01:23:41.172Z,58.04
2023-02-14T01:26:08.757Z,58.72
2023-02-14T01:28:35.836Z,58.72
2023-02-14T01:31:07.801Z,59.00
2023-02-14T01:33:34.497Z,58.90
2023-02-14T01:36:01.022Z,58.92
2023-02-14T01:38:27.566Z,58.98
2023-02-14T01:40:54.043Z,58.81
2023-02-14T01:43:20.569Z,58.86
2023-02-14T01:45:47.211Z,59.11
2023-02-14T01:48:15.335Z,59.15
2023-02-14T01:50:44.945Z,59.11
2023-02-14T01:53:21.330Z,59.30
2023-02-14T01:55:56.931Z,59.33
2023-02-14T01:58:27.325Z,59.39
2023-02-14T02:01:00.222Z,59.67
2023-02-14T02:03:32.661Z,59.57
2023-02-14T02:06:14.052Z,59.62
2023-02-14T02:08:47.970Z,59.75
2023-02-14T02:11:14.480Z,60.13
2023-02-14T02:13:40.967Z,59.85
2023-02-14T02:16:33.521Z,60.08
2023-02-14T02:19:08.898Z,60.09
2023-02-14T02:21:54.209Z,59.96
2023-02-14T02:24:26.361Z,60.03
2023-02-14T02:27:28.284Z,59.78
2023-02-14T02:29:57.430Z,59.96
2023-02-14T02:32:29.621Z,59.78
2023-02-14T02:35:05.641Z,59.75
2023-02-14T02:38:05.356Z,59.28
2023-02-14T02:41:04.076Z,59.18
2023-02-14T02:43:55.366Z,59.58
2023-02-14T02:46:48.516Z,59.31
2023-02-14T02:49:50.463Z,59.07
2023-02-14T02:52:56.586Z,59.49
2023-02-14T02:55:30.461Z,59.11
2023-02-14T02:57:57.518Z,59.31
2023-02-14T03:00:25.087Z,59.49
2023-02-14T03:03:27.709Z,59.44
2023-02-14T03:05:54.605Z,59.27
2023-02-14T03:08:21.134Z,59.31
2023-02-14T03:10:47.670Z,59.10
2023-02-14T03:13:42.156Z,58.95
2023-02-14T03:16:28.716Z,59.15
2023-02-14T03:19:18.437Z,58.97
2023-02-14T03:22:10.680Z,59.20
2023-02-14T03:25:01.810Z,59.37
2023-02-14T03:27:50.053Z,59.27
2023-02-14T03:30:45.724Z,59.41
2023-02-14T03:33:38.842Z,58.97
2023-02-14T03:36:31.717Z,59.39
2023-02-14T03:39:22.848Z,59.08
2023-02-14T03:41:55.142Z,59.29
2023-02-14T03:44:25.914Z,59.06
2023-02-14T03:46:58.098Z,59.03
2023-02-14T03:49:29.823Z,59.16
2023-02-14T03:51:58.656Z,59.01
2023-02-14T03:54:27.214Z,58.93
2023-02-14T03:57:01.524Z,58.80
2023-02-14T03:59:29.324Z,58.87
2023-02-14T04:02:08.849Z,59.00
2023-02-14T04:04:40.621Z,58.98
2023-02-14T04:07:22.289Z,58.83
2023-02-14T04:09:49.546Z,58.72
2023-02-14T04:12:21.733Z,58.86
2023-02-14T04:14:50.469Z,58.73
2023-02-14T04:17:35.299Z,58.28
2023-02-14T04:20:01.780Z,58.53
2023-02-14T04:22:28.306Z,58.64
2023-02-14T04:24:54.753Z,58.16
2023-02-14T04:27:21.301Z,58.19
2023-02-14T04:29:49.903Z,58.27
2023-02-14T04:32:20.336Z,58.30
2023-02-14T04:34:47.057Z,58.26
2023-02-14T04:37:15.561Z,58.45
2023-02-14T04:39:42.020Z,58.32
2023-02-14T04:42:09.342Z,58.15
2023-02-14T04:44:38.212Z,58.22
2023-02-14T04:47:05.914Z,58.48
2023-02-14T04:49:32.932Z,58.80
2023-02-14T04:51:59.914Z,58.89
2023-02-14T04:54:26.525Z,58.74
2023-02-14T04:56:53.221Z,58.64
2023-02-14T04:59:19.848Z,59.11
2023-02-14T05:01:46.402Z,58.87
2023-02-14T05:04:12.944Z,59.19
2023-02-14T05:06:39.426Z,59.20
2023-02-14T05:09:06.211Z,61.70
2023-02-14T05:11:32.719Z,61.45
2023-02-14T05:13:59.323Z,67.09
2023-02-14T05:16:26.016Z,69.49
2023-02-14T05:18:52.510Z,68.29
2023-02-14T05:21:19.028Z,71.24
2023-02-14T05:23:45.693Z,72.79
2023-02-14T05:26:12.240Z,73.37
2023-02-14T05:28:41.087Z,71.78
2023-02-14T05:31:09.075Z,72.27
2023-02-14T05:33:35.964Z,70.10
2023-02-14T05:36:02.843Z,67.27
2023-02-14T05:38:30.658Z,64.97
2023-02-14T05:40:57.387Z,61.76
2023-02-14T05:43:23.949Z,61.58
2023-02-14T05:45:50.556Z,58.74
2023-02-14T05:48:18.018Z,57.25
2023-02-14T05:50:45.631Z,56.18
2023-02-14T05:53:12.626Z,55.18
2023-02-14T05:55:39.274Z,54.32
2023-02-14T05:58:06.087Z,54.24
2023-02-14T06:00:32.564Z,56.23
2023-02-14T06:02:59.053Z,54.85
2023-02-14T06:05:25.735Z,55.16
2023-02-14T06:07:52.365Z,58.86
2023-02-14T06:10:23.308Z,62.52
2023-02-14T06:12:51.602Z,65.51
2023-02-14T06:15:18.241Z,67.80
2023-02-14T06:17:44.889Z,68.78
2023-02-14T06:20:11.880Z,69.94
2023-02-14T06:22:39.327Z,70.42
2023-02-14T06:25:06.523Z,69.43
2023-02-14T06:27:33.245Z,66.50
2023-02-14T06:30:00.435Z,64.59
2023-02-14T06:32:27.030Z,56.83
2023-02-14T06:34:53.614Z,55.18
2023-02-14T06:37:20.290Z,53.69
2023-02-14T06:39:46.865Z,53.50
2023-02-14T06:42:13.387Z,53.19
2023-02-14T06:44:39.856Z,52.70
2023-02-14T06:47:06.400Z,53.10
2023-02-14T06:49:32.869Z,53.56
2023-02-14T06:51:59.389Z,54.20
2023-02-14T06:54:25.929Z,54.87
2023-02-14T06:56:52.445Z,55.27
2023-02-14T06:59:18.949Z,55.92
2023-02-14T07:01:45.517Z,56.48
2023-02-14T07:04:12.112Z,56.56
2023-02-14T07:06:38.861Z,56.50
2023-02-14T07:09:05.687Z,56.99
2023-02-14T07:11:32.190Z,57.13
2023-02-14T07:13:58.715Z,57.46
2023-02-14T07:16:25.286Z,58.29
2023-02-14T07:18:51.793Z,58.16
2023-02-14T07:21:18.300Z,58.65
2023-02-14T07:23:47.809Z,59.19
2023-02-14T07:26:18.222Z,59.54
2023-02-14T07:28:45.631Z,59.54
2023-02-14T07:31:12.630Z,60.37
2023-02-14T07:33:39.218Z,60.24
2023-02-14T07:36:07.184Z,60.88
2023-02-14T07:38:34.508Z,61.03
2023-02-14T07:41:01.719Z,61.35
2023-02-14T07:43:28.727Z,61.23
2023-02-14T07:45:55.197Z,59.88
2023-02-14T07:48:22.138Z,61.06
2023-02-14T07:50:48.772Z,60.75
2023-02-14T07:53:15.299Z,60.67
2023-02-14T07:55:41.821Z,60.42
2023-02-14T07:58:08.328Z,60.89
2023-02-14T08:00:34.944Z,60.26
2023-02-14T08:03:01.562Z,60.68
2023-02-14T08:05:28.191Z,61.09
2023-02-14T08:07:54.728Z,61.06
2023-02-14T08:10:21.256Z,61.35
2023-02-14T08:13:00.090Z,61.47
2023-02-14T08:15:50.073Z,61.28
2023-02-14T08:18:18.374Z,61.56
2023-02-14T08:20:49.956Z,61.54
2023-02-14T08:23:17.263Z,61.67
2023-02-14T08:25:43.801Z,60.51
2023-02-14T08:28:10.625Z,61.21
2023-02-14T08:30:38.166Z,60.52
2023-02-14T08:33:05.376Z,61.29
2023-02-14T08:35:31.880Z,60.76
2023-02-14T08:37:58.484Z,60.64
2023-02-14T08:40:25.305Z,59.36
2023-02-14T08:42:51.825Z,59.85
2023-02-14T08:45:18.477Z,59.50
2023-02-14T08:47:45.004Z,59.07
2023-02-14T08:50:14.574Z,58.67
2023-02-14T08:52:43.366Z,57.52
2023-02-14T08:55:11.658Z,56.62
2023-02-14T08:57:38.512Z,56.46
2023-02-14T09:00:07.313Z,55.83
2023-02-14T09:02:34.561Z,56.27
2023-02-14T09:05:02.106Z,56.30
2023-02-14T09:07:28.617Z,56.41
2023-02-14T09:09:55.165Z,56.05
2023-02-14T09:12:21.972Z,55.68
2023-02-14T09:14:48.401Z,57.06
2023-02-14T09:17:15.796Z,55.21
2023-02-14T09:19:42.440Z,54.60
2023-02-14T09:22:10.955Z,54.97
2023-02-14T09:24:39.066Z,54.56
2023-02-14T09:27:06.294Z,54.49
2023-02-14T09:29:33.773Z,54.03
2023-02-14T09:32:02.195Z,53.95
2023-02-14T09:34:30.075Z,53.84
2023-02-14T09:37:15.412Z,53.61
2023-02-14T09:39:41.951Z,53.59
2023-02-14T09:42:48.484Z,54.81
2023-02-14T09:45:20.412Z,53.75
2023-02-14T09:47:52.251Z,54.20
2023-02-14T09:50:30.696Z,54.37
2023-02-14T10:01:15.488Z,54.37
2023-02-14T10:04:39.873Z,53.86
2023-02-14T10:07:21.613Z,53.40
2023-02-14T10:10:06.176Z,53.34
2023-02-14T10:12:40.302Z,52.23
2023-02-14T10:15:15.898Z,52.40
2023-02-14T10:17:47.087Z,51.54
2023-02-14T10:20:34.740Z,51.92
2023-02-14T10:23:16.524Z,51.07
2023-02-14T10:25:48.790Z,50.43
2023-02-14T10:28:22.767Z,50.14
2023-02-14T10:31:02.566Z,50.62
2023-02-14T10:33:33.339Z,49.33
2023-02-14T10:36:05.773Z,49.59
2023-02-14T10:38:49.169Z,51.05
2023-02-14T10:41:34.240Z,50.29
2023-02-14T10:44:20.602Z,50.37
2023-02-14T10:47:10.166Z,50.57
2023-02-14T10:49:46.924Z,49.35
2023-02-14T10:52:16.377Z,48.90
2023-02-14T10:54:50.655Z,48.41
2023-02-14T10:57:26.059Z,47.79
2023-02-14T11:00:00.962Z,48.87
2023-02-14T11:02:41.390Z,48.16
2023-02-14T11:05:18.946Z,46.50
2023-02-14T11:07:45.395Z,46.00
2023-02-14T11:10:14.646Z,46.84
2023-02-14T11:12:41.914Z,45.83
2023-02-14T11:15:11.841Z,45.32
2023-02-14T11:17:38.349Z,45.11
2023-02-14T11:20:22.576Z,47.69
2023-02-14T11:22:50.205Z,44.62
2023-02-14T11:25:22.804Z,45.36
2023-02-14T11:27:56.634Z,45.00
2023-02-14T11:30:39.120Z,45.20
2023-02-14T11:33:09.377Z,44.32
2023-02-14T11:35:37.061Z,44.03
2023-02-14T11:38:21.967Z,45.13
2023-02-14T11:40:55.430Z,45.37
2023-02-14T11:43:35.308Z,45.98
2023-02-14T11:46:28.074Z,45.48
2023-02-14T11:48:57.449Z,44.44
2023-02-14T11:51:34.096Z,44.88
2023-02-14T11:54:05.043Z,44.42
2023-02-14T11:56:48.851Z,45.46
2023-02-14T11:59:37.038Z,46.00
2023-02-14T12:02:38.167Z,45.99
2023-02-14T12:05:20.693Z,45.33
2023-02-14T12:07:52.718Z,43.72
2023-02-14T12:10:27.347Z,43.02
2023-02-14T12:13:08.942Z,44.93
2023-02-14T12:15:49.162Z,43.35
2023-02-14T12:18:34.566Z,43.77
2023-02-14T12:21:12.953Z,41.06
2023-02-14T12:23:50.869Z,43.05
2023-02-14T12:26:33.078Z,43.64
2023-02-14T12:29:12.233Z,42.25
2023-02-14T12:31:38.874Z,39.91
2023-02-14T12:34:05.847Z,39.30
2023-02-14T12:37:02.137Z,42.64
2023-02-14T12:39:51.550Z,41.40
2023-02-14T12:42:26.827Z,39.11
2023-02-14T12:45:02.585Z,38.52
2023-02-14T12:47:48.362Z,41.37
2023-02-14T12:50:43.919Z,38.20
2023-02-14T12:53:45.408Z,41.86
2023-02-14T12:56:18.323Z,40.66
2023-02-14T12:58:57.138Z,41.58
2023-02-14T13:01:38.880Z,40.96
2023-02-14T13:04:45.176Z,42.08
2023-02-14T13:07:45.160Z,42.26
2023-02-14T13:10:19.546Z,38.75
2023-02-14T13:13:02.819Z,39.78
2023-02-14T13:15:38.408Z,37.04
2023-02-14T13:18:07.812Z,36.48
2023-02-14T13:20:42.959Z,38.07
2023-02-14T13:23:34.894Z,36.82
2023-02-14T13:26:05.654Z,37.35
2023-02-14T13:28:33.784Z,36.38
2023-02-14T13:31:01.941Z,37.10
2023-02-14T13:33:35.241Z,37.14
2023-02-14T13:36:06.120Z,36.75
2023-02-14T13:38:32.946Z,36.50
2023-02-14T13:41:01.797Z,36.30
2023-02-14T13:44:08.190Z,40.47
2023-02-14T13:46:34.651Z,36.34
2023-02-14T13:49:07.867Z,37.96
2023-02-14T13:51:48.871Z,38.32
2023-02-14T13:54:33.596Z,38.06
2023-02-14T13:57:01.816Z,35.92
2023-02-14T13:59:37.319Z,37.31
2023-02-14T14:02:43.264Z,39.59
2023-02-14T14:05:32.515Z,38.53
2023-02-14T14:08:31.970Z,39.33
2023-02-14T14:11:32.334Z,37.40
2023-02-14T14:14:20.654Z,38.03
2023-02-14T14:16:58.763Z,37.33
2023-02-14T14:19:25.165Z,34.68
2023-02-14T14:22:02.324Z,40.01
2023-02-14T14:24:31.174Z,35.68
2023-02-14T14:27:29.856Z,35.95
2023-02-14T14:30:05.454Z,36.29
2023-02-14T14:32:37.314Z,35.22
2023-02-14T14:35:08.360Z,35.35
2023-02-14T14:37:37.246Z,35.65
2023-02-14T14:40:07.083Z,35.29
2023-02-14T14:42:39.206Z,36.08
2023-02-14T14:45:21.673Z,37.35
2023-02-14T14:47:49.033Z,34.86
2023-02-14T14:50:19.772Z,35.67
2023-02-14T14:52:49.024Z,35.38
2023-02-14T14:55:24.310Z,36.84
2023-02-14T14:57:57.122Z,36.00
2023-02-14T15:00:29.495Z,36.14
2023-02-14T15:02:57.401Z,35.26
2023-02-14T15:05:34.163Z,36.28
2023-02-14T15:08:33.077Z,38.19
2023-02-14T15:11:10.427Z,34.94
2023-02-14T15:13:49.918Z,36.56
2023-02-14T15:16:19.256Z,37.70
2023-02-14T15:18:46.260Z,37.84
2023-02-14T15:21:13.450Z,38.76
2023-02-14T15:23:44.038Z,38.37
2023-02-14T15:26:18.360Z,39.18
2023-02-14T15:28:53.615Z,38.26
2023-02-14T15:31:20.362Z,38.75
2023-02-14T15:33:47.054Z,38.48
2023-02-14T15:36:20.426Z,39.28
2023-02-14T15:38:47.419Z,38.99
2023-02-14T15:41:14.471Z,38.97
2023-02-14T15:43:41.345Z,39.20
2023-02-14T15:46:29.018Z,40.34
2023-02-14T15:48:58.735Z,39.84
2023-02-14T15:51:29.257Z,39.94
2023-02-14T15:54:02.668Z,40.14
2023-02-14T15:56:32.370Z,39.80
2023-02-14T15:59:02.614Z,40.33
2023-02-14T16:01:31.520Z,40.40
2023-02-14T16:04:01.810Z,40.38
2023-02-14T16:06:44.677Z,40.70
2023-02-14T16:09:27.911Z,41.01
2023-02-14T16:11:54.948Z,40.28
2023-02-14T16:14:36.345Z,41.25
2023-02-14T16:17:11.720Z,41.15
2023-02-14T16:19:46.021Z,41.40
2023-02-14T16:22:24.954Z,41.86
2023-02-14T16:24:51.413Z,41.65
2023-02-14T16:27:17.913Z,41.87
2023-02-14T16:29:44.277Z,41.76
2023-02-14T16:32:20.791Z,42.45
2023-02-14T16:34:48.397Z,42.39
2023-02-14T16:37:22.367Z,42.73
2023-02-14T16:39:53.975Z,42.94
2023-02-14T16:42:20.589Z,43.42
2023-02-14T16:44:48.030Z,42.91
2023-02-14T16:47:16.088Z,43.64
2023-02-14T16:49:42.632Z,43.99
2023-02-14T16:52:23.885Z,44.11
2023-02-14T16:54:50.656Z,44.21
2023-02-14T16:57:20.093Z,43.85
2023-02-14T16:59:47.251Z,44.38
2023-02-14T17:02:14.343Z,44.98
2023-02-14T17:04:40.875Z,44.85
2023-02-14T17:07:08.018Z,45.10
2023-02-14T17:09:40.064Z,45.24
2023-02-14T17:12:16.136Z,45.67
2023-02-14T17:14:47.059Z,45.91
2023-02-14T17:17:14.107Z,45.96
2023-02-14T17:19:40.570Z,46.24
2023-02-14T17:22:07.758Z,46.18
2023-02-14T17:24:34.235Z,46.58
2023-02-14T17:27:00.736Z,46.40
2023-02-14T17:29:27.192Z,46.84
2023-02-14T17:31:53.775Z,46.64
2023-02-14T17:34:20.301Z,47.07
2023-02-14T17:36:46.987Z,46.89
2023-02-14T17:39:14.774Z,45.66
2023-02-14T17:41:41.263Z,47.13
2023-02-14T17:44:07.712Z,47.52
2023-02-14T17:46:34.222Z,47.48
2023-02-14T17:49:03.876Z,47.68
2023-02-14T17:51:30.408Z,48.04
2023-02-14T17:53:58.986Z,48.18
2023-02-14T17:56:26.865Z,48.49
2023-02-14T17:58:55.222Z,48.52
2023-02-14T18:01:25.291Z,48.57
2023-02-14T18:03:53.846Z,48.93
2023-02-14T18:06:21.383Z,49.21
2023-02-14T18:08:51.790Z,49.44
2023-02-14T18:11:20.412Z,49.37
2023-02-14T18:13:47.352Z,49.23
2023-02-14T18:16:16.146Z,49.39
2023-02-14T18:18:42.627Z,49.63
2023-02-14T18:21:11.906Z,49.54
2023-02-14T18:23:38.912Z,49.93
2023-02-14T18:26:10.392Z,50.03
2023-02-14T18:28:36.973Z,50.19
2023-02-14T18:31:04.990Z,50.41
2023-02-14T18:33:31.533Z,50.60
2023-02-14T18:36:00.793Z,50.48
2023-02-14T18:38:27.408Z,50.88
2023-02-14T18:40:53.864Z,50.74
2023-02-14T18:43:20.380Z,50.78
2023-02-14T18:45:47.142Z,51.23
2023-02-14T18:48:13.623Z,48.81
2023-02-14T18:50:40.072Z,51.12
2023-02-14T18:53:06.641Z,51.59
2023-02-14T18:55:33.451Z,51.51
2023-02-14T18:57:59.858Z,49.26
2023-02-14T19:00:27.185Z,51.63
2023-02-14T19:02:53.611Z,51.56
2023-02-14T19:05:20.088Z,51.80
2023-02-14T19:07:46.546Z,51.83
2023-02-14T19:10:13.099Z,52.19
2023-02-14T19:12:39.942Z,51.95
2023-02-14T19:15:06.501Z,49.71
2023-02-14T19:17:33.985Z,51.78
2023-02-14T19:20:00.589Z,52.44
2023-02-14T19:22:27.079Z,52.14
2023-02-14T19:24:53.831Z,52.19
2023-02-14T19:27:21.673Z,52.61
2023-02-14T19:29:48.343Z,52.30
2023-02-14T19:32:14.831Z,50.17
2023-02-14T19:34:41.395Z,52.00
2023-02-14T19:37:07.946Z,52.53
2023-02-14T19:39:34.451Z,52.57
2023-02-14T19:42:01.226Z,52.71
2023-02-14T19:44:29.312Z,50.22
2023-02-14T19:46:56.677Z,52.78
2023-02-14T19:49:23.452Z,53.06
2023-02-14T19:51:51.297Z,50.35
2023-02-14T19:54:18.839Z,52.36
2023-02-14T19:56:46.775Z,52.47
2023-02-14T19:59:19.994Z,52.80
2023-02-14T20:01:52.154Z,52.60
2023-02-14T20:04:22.321Z,52.62
2023-02-14T20:06:49.827Z,52.71
2023-02-14T20:09:17.466Z,52.83
2023-02-14T20:11:50.204Z,52.97
2023-02-14T20:14:28.464Z,52.29
2023-02-14T20:16:56.833Z,53.07
2023-02-14T20:19:27.009Z,52.91
2023-02-14T20:21:54.255Z,53.14
2023-02-14T20:24:23.444Z,53.44
2023-02-14T20:26:51.864Z,53.29
2023-02-14T20:29:19.826Z,53.49
2023-02-14T20:31:51.157Z,53.23
2023-02-14T20:34:19.102Z,53.79
2023-02-14T20:36:52.942Z,54.00
2023-02-14T20:39:21.469Z,53.79
2023-02-14T20:41:50.999Z,53.85
2023-02-14T20:44:21.955Z,54.07
2023-02-14T20:46:51.934Z,54.10
2023-02-14T20:49:19.857Z,54.06
2023-02-14T20:51:49.667Z,54.46
2023-02-14T20:54:18.124Z,55.89
2023-02-14T20:56:45.504Z,55.26
2023-02-14T20:59:12.140Z,55.26
2023-02-14T21:01:39.181Z,55.67
2023-02-14T21:04:05.966Z,55.96
2023-02-14T21:06:34.163Z,55.82
2023-02-14T21:09:01.263Z,56.04
2023-02-14T21:11:27.981Z,56.02
2023-02-14T21:13:59.647Z,53.14
2023-02-14T21:16:27.288Z,55.42
2023-02-14T21:18:58.989Z,55.45
2023-02-14T21:21:34.953Z,55.40
2023-02-14T21:24:13.212Z,55.13
2023-02-14T21:26:40.192Z,55.59
2023-02-14T21:29:07.561Z,55.50
2023-02-14T21:31:34.792Z,55.22
2023-02-14T21:34:02.591Z,54.69
2023-02-14T21:36:31.405Z,55.27
2023-02-14T21:38:59.018Z,55.51
2023-02-14T21:44:01.362Z,55.59
2023-02-14T21:46:31.169Z,55.79
2023-02-14T21:49:18.691Z,55.65
2023-02-14T21:51:46.222Z,56.15
2023-02-14T21:54:13.567Z,56.04
2023-02-14T21:56:41.488Z,56.29
2023-02-14T21:59:09.548Z,56.11
2023-02-14T22:01:39.248Z,56.34
2023-02-14T22:04:09.183Z,56.26
2023-02-14T22:06:38.156Z,56.55
2023-02-14T22:09:08.607Z,56.14
2023-02-14T22:11:35.246Z,56.31
2023-02-14T22:14:02.223Z,56.17
2023-02-14T22:16:29.407Z,55.86
2023-02-14T22:18:55.972Z,55.62
2023-02-14T22:21:25.661Z,55.66
2023-02-14T22:23:53.067Z,55.69
2023-02-14T22:26:19.471Z,55.47
2023-02-14T22:28:47.990Z,55.70
2023-02-14T22:31:16.424Z,56.08
2023-02-14T22:33:43.569Z,55.41
2023-02-14T22:36:10.729Z,55.10
2023-02-14T22:38:38.157Z,55.06
2023-02-14T22:41:13.132Z,54.41
2023-02-14T22:43:40.391Z,53.93
2023-02-14T22:46:10.267Z,54.56
2023-02-14T22:48:37.620Z,54.06
2023-02-14T22:51:21.168Z,53.46
2023-02-14T22:53:49.158Z,54.13
2023-02-14T22:56:16.849Z,54.17
2023-02-14T22:58:44.569Z,54.32
2023-02-14T23:01:18.742Z,53.63
2023-02-14T23:03:46.217Z,53.62
2023-02-14T23:06:13.798Z,53.61
2023-02-14T23:08:45.764Z,53.92
2023-02-14T23:11:15.473Z,54.63
2023-02-14T23:14:00.803Z,55.00
2023-02-14T23:16:45.983Z,55.22
2023-02-14T23:19:35.920Z,55.61
2023-02-14T23:22:08.400Z,55.63
2023-02-14T23:24:35.408Z,55.66
2023-02-14T23:27:02.423Z,55.82
2023-02-14T23:29:29.618Z,56.21
2023-02-14T23:31:56.404Z,56.13
2023-02-14T23:34:26.327Z,54.07
2023-02-14T23:36:52.960Z,55.99
2023-02-14T23:39:19.557Z,55.82
2023-02-14T23:41:48.755Z,55.85
2023-02-14T23:44:21.463Z,55.94
2023-02-14T23:46:49.684Z,56.29
2023-02-14T23:49:16.950Z,56.22
2023-02-14T23:51:45.187Z,55.51
2023-02-14T23:54:11.876Z,55.26
2023-02-14T23:56:38.807Z,55.36
2023-02-14T23:59:07.038Z,55.48
